createdAt,value
2022-08-03T00:00:24.351Z,3.20
2022-08-03T00:02:51.120Z,2.90
2022-08-03T00:05:19.209Z,2.65
2022-08-03T00:07:45.959Z,2.70
2022-08-03T00:10:15.179Z,2.60
2022-08-03T00:12:41.774Z,3.10
2022-08-03T00:15:10.454Z,3.07
2022-08-03T00:17:52.989Z,2.75
2022-08-03T00:20:24.003Z,2.78
2022-08-03T00:22:50.607Z,2.50
2022-08-03T00:25:17.578Z,2.62
2022-08-03T00:27:44.159Z,2.85
2022-08-03T00:30:10.957Z,2.77
2022-08-03T00:32:38.757Z,2.92
2022-08-03T00:35:18.293Z,2.53
2022-08-03T00:37:57.537Z,2.72
2022-08-03T00:40:24.179Z,2.92
2022-08-03T00:43:01.665Z,2.80
2022-08-03T00:45:29.735Z,2.92
2022-08-03T00:47:56.508Z,2.92
2022-08-03T00:50:23.724Z,3.25
2022-08-03T00:52:52.218Z,3.30
2022-08-03T00:55:18.842Z,2.90
2022-08-03T00:57:45.453Z,3.00
2022-08-03T01:00:12.964Z,3.60
2022-08-03T01:02:39.644Z,3.28
2022-08-03T01:05:07.062Z,4.30
2022-08-03T01:07:40.001Z,3.28
2022-08-03T01:10:14.167Z,3.75
2022-08-03T01:13:03.923Z,3.58
2022-08-03T01:15:41.657Z,3.85
2022-08-03T01:18:12.682Z,3.53
2022-08-03T01:20:41.751Z,3.50
2022-08-03T01:23:28.809Z,4.03
2022-08-03T01:26:26.911Z,3.67
2022-08-03T01:29:12.037Z,4.37
2022-08-03T01:32:52.447Z,3.80
2022-08-03T01:34:38.119Z,3.60
2022-08-03T01:37:06.012Z,3.67
2022-08-03T01:39:32.614Z,3.50
2022-08-03T01:42:02.319Z,3.87
2022-08-03T01:44:31.047Z,3.53
2022-08-03T01:47:03.483Z,3.92
2022-08-03T01:49:31.086Z,3.70
2022-08-03T01:52:03.617Z,3.97
2022-08-03T01:54:31.876Z,4.47
2022-08-03T01:56:58.614Z,3.53
2022-08-03T01:59:25.895Z,3.40
2022-08-03T02:02:15.322Z,3.40
2022-08-03T02:04:39.143Z,3.78
2022-08-03T02:07:05.864Z,3.93
2022-08-03T02:09:33.636Z,3.62
2022-08-03T02:12:00.797Z,3.75
2022-08-03T02:14:27.358Z,3.97
2022-08-03T02:16:54.089Z,3.83
2022-08-03T02:19:20.821Z,3.83
2022-08-03T02:21:57.112Z,3.62
2022-08-03T02:24:27.627Z,3.70
2022-08-03T02:26:55.469Z,3.77
2022-08-03T02:29:39.069Z,3.45
2022-08-03T02:32:07.911Z,3.62
2022-08-03T02:37:00.937Z,4.00
2022-08-03T02:39:28.344Z,3.70
2022-08-03T02:41:55.997Z,4.20
2022-08-03T02:44:24.275Z,3.83
2022-08-03T02:46:54.630Z,3.75
2022-08-03T02:49:49.473Z,3.75
2022-08-03T02:52:13.124Z,3.97
2022-08-03T02:54:39.922Z,3.70
2022-08-03T02:57:09.335Z,4.20
2022-08-03T02:59:35.892Z,3.90
2022-08-03T03:02:02.471Z,4.43
2022-08-03T03:04:31.296Z,4.00
2022-08-03T03:06:59.943Z,4.12
2022-08-03T03:09:40.099Z,4.37
2022-08-03T03:12:08.423Z,4.55
2022-08-03T03:14:35.272Z,4.50
2022-08-03T03:17:02.015Z,4.00
2022-08-03T03:19:28.623Z,3.90
2022-08-03T03:21:55.173Z,4.80
2022-08-03T03:24:21.785Z,4.07
2022-08-03T03:26:48.798Z,4.37
2022-08-03T03:29:15.820Z,4.43
2022-08-03T03:31:42.823Z,4.50
2022-08-03T03:34:09.450Z,4.43
2022-08-03T03:36:37.361Z,4.12
2022-08-03T03:39:16.026Z,4.27
2022-08-03T03:41:42.959Z,4.18
2022-08-03T03:44:09.615Z,4.20
2022-08-03T03:46:36.181Z,5.77
2022-08-03T03:49:02.856Z,4.55
2022-08-03T03:51:29.462Z,4.37
2022-08-03T03:54:00.414Z,5.03
2022-08-03T03:56:27.227Z,4.45
2022-08-03T03:58:53.903Z,4.70
2022-08-03T04:01:20.664Z,4.47
2022-08-03T04:03:47.346Z,4.37
2022-08-03T04:06:32.503Z,4.87
2022-08-03T04:09:17.804Z,4.45
2022-08-03T04:11:52.138Z,4.20
2022-08-03T04:14:26.737Z,5.35
2022-08-03T04:17:04.029Z,5.25
2022-08-03T04:19:45.297Z,4.40
2022-08-03T04:22:14.013Z,5.15
2022-08-03T04:24:43.214Z,5.03
2022-08-03T04:27:09.853Z,4.55
2022-08-03T04:29:38.641Z,5.07
2022-08-03T04:32:14.785Z,4.35
2022-08-03T04:34:41.526Z,4.43
2022-08-03T04:37:12.485Z,4.53
2022-08-03T04:39:41.947Z,4.60
2022-08-03T04:42:09.318Z,4.47
2022-08-03T04:47:03.313Z,4.50
2022-08-03T04:49:30.755Z,4.72
2022-08-03T04:51:57.379Z,4.37
2022-08-03T04:54:23.948Z,4.37
2022-08-03T04:56:50.546Z,4.53
2022-08-03T04:59:17.887Z,4.60
2022-08-03T05:01:44.850Z,4.55
2022-08-03T05:06:41.422Z,4.60
2022-08-03T05:09:14.883Z,4.68
2022-08-03T05:11:41.511Z,4.45
2022-08-03T05:14:08.103Z,5.20
2022-08-03T05:16:34.781Z,4.65
2022-08-03T05:19:01.412Z,4.35
2022-08-03T05:21:41.615Z,4.57
2022-08-03T05:24:14.568Z,4.57
2022-08-03T05:26:41.653Z,4.40
2022-08-03T05:29:08.303Z,4.65
2022-08-03T05:31:35.078Z,4.50
2022-08-03T05:34:01.666Z,4.60
2022-08-03T05:36:28.380Z,4.40
2022-08-03T05:38:55.219Z,5.12
2022-08-03T05:41:36.802Z,3.97
2022-08-03T05:44:04.163Z,4.82
2022-08-03T05:48:57.273Z,4.40
2022-08-03T05:53:50.319Z,4.65
2022-08-03T05:56:17.171Z,4.60
2022-08-03T05:58:47.513Z,4.37
2022-08-03T06:01:16.675Z,4.07
2022-08-03T06:03:48.012Z,4.37
2022-08-03T06:06:14.699Z,4.10
2022-08-03T06:08:41.898Z,4.30
2022-08-03T06:11:08.514Z,3.90
2022-08-03T06:13:35.075Z,4.30
2022-08-03T06:16:01.782Z,4.07
2022-08-03T06:20:55.039Z,4.07
2022-08-03T06:23:21.815Z,3.92
2022-08-03T06:25:48.517Z,4.57
2022-08-03T06:31:02.210Z,3.90
2022-08-03T06:33:48.483Z,3.90
2022-08-03T06:36:15.812Z,4.03
2022-08-03T06:38:42.491Z,4.05
2022-08-03T06:44:02.630Z,4.00
2022-08-03T06:46:25.113Z,5.97
2022-08-03T06:48:52.766Z,4.60
2022-08-03T06:51:19.564Z,4.57
2022-08-03T06:56:12.751Z,4.43
2022-08-03T07:01:05.854Z,4.65
2022-08-03T07:06:01.631Z,4.50
2022-08-03T07:08:33.745Z,4.50
2022-08-03T07:11:01.095Z,4.70
2022-08-03T07:13:28.975Z,4.90
2022-08-03T07:15:56.498Z,5.10
2022-08-03T07:18:39.905Z,5.12
2022-08-03T07:21:08.090Z,4.60
2022-08-03T07:23:35.775Z,5.00
2022-08-03T07:26:02.430Z,4.75
2022-08-03T07:28:29.145Z,4.95
2022-08-03T07:30:55.743Z,5.10
2022-08-03T07:35:49.971Z,4.93
2022-08-03T07:38:16.633Z,5.43
2022-08-03T07:40:46.184Z,5.53
2022-08-03T07:43:13.254Z,5.10
2022-08-03T07:45:39.879Z,5.40
2022-08-03T07:48:11.996Z,4.70
2022-08-03T07:50:58.129Z,4.80
2022-08-03T07:53:24.821Z,5.43
2022-08-03T07:55:51.724Z,5.40
2022-08-03T07:58:23.715Z,5.20
2022-08-03T08:00:53.000Z,5.65
2022-08-03T08:03:19.880Z,5.65
2022-08-03T08:08:13.191Z,4.95
2022-08-03T08:10:40.461Z,5.45
2022-08-03T08:13:07.168Z,5.30
2022-08-03T08:15:33.826Z,5.35
2022-08-03T08:18:01.415Z,5.72
2022-08-03T08:20:32.304Z,5.12
2022-08-03T08:23:10.278Z,5.28
2022-08-03T08:25:51.365Z,5.47
2022-08-03T08:28:29.190Z,5.30
2022-08-03T08:30:59.146Z,6.07
2022-08-03T08:33:25.914Z,5.55
2022-08-03T08:35:54.401Z,4.70
2022-08-03T08:38:21.801Z,5.57
2022-08-03T08:40:49.911Z,5.05
2022-08-03T08:43:19.200Z,4.90
2022-08-03T08:45:49.470Z,4.68
2022-08-03T08:48:16.519Z,4.70
2022-08-03T08:50:43.195Z,4.57
2022-08-03T08:53:16.233Z,5.53
2022-08-03T08:55:58.223Z,4.80
2022-08-03T08:58:28.754Z,5.30
2022-08-03T09:00:55.469Z,5.30
2022-08-03T09:03:29.391Z,5.18
2022-08-03T09:06:01.226Z,5.10
2022-08-03T09:08:29.234Z,4.95
2022-08-03T09:10:56.241Z,5.00
2022-08-03T09:13:22.904Z,4.78
2022-08-03T09:15:59.822Z,4.95
2022-08-03T09:18:32.939Z,4.78
2022-08-03T09:21:37.264Z,4.18
2022-08-03T09:24:06.222Z,4.85
2022-08-03T09:26:37.518Z,4.57
2022-08-03T09:29:11.174Z,4.62
2022-08-03T09:31:43.631Z,4.43
2022-08-03T09:34:15.466Z,4.60
2022-08-03T09:36:45.750Z,4.70
2022-08-03T09:39:37.506Z,5.00
2022-08-03T09:42:08.834Z,5.32
2022-08-03T09:44:51.319Z,5.15
2022-08-03T09:47:31.409Z,4.90
2022-08-03T09:50:08.409Z,4.68
2022-08-03T09:52:49.135Z,4.50
2022-08-03T09:56:01.753Z,4.50
2022-08-03T09:58:07.462Z,4.82
2022-08-03T10:00:52.667Z,3.95
2022-08-03T10:03:19.956Z,4.50
2022-08-03T10:05:46.875Z,4.03
2022-08-03T10:08:18.162Z,4.57
2022-08-03T10:10:45.801Z,4.22
2022-08-03T10:13:13.502Z,4.50
2022-08-03T10:16:21.603Z,4.45
2022-08-03T10:18:27.137Z,4.30
2022-08-03T10:20:55.038Z,4.30
2022-08-03T10:23:21.679Z,3.97
2022-08-03T10:25:49.642Z,4.25
2022-08-03T10:28:18.455Z,4.53
2022-08-03T10:30:48.319Z,4.47
2022-08-03T10:33:51.180Z,4.25
2022-08-03T10:36:14.574Z,4.87
2022-08-03T10:38:46.777Z,4.18
2022-08-03T10:41:13.969Z,4.45
2022-08-03T10:43:53.097Z,4.53
2022-08-03T10:46:20.775Z,4.97
2022-08-03T10:48:48.676Z,4.93
2022-08-03T10:51:15.720Z,4.47
2022-08-03T10:56:52.142Z,4.03
2022-08-03T10:59:27.484Z,4.12
2022-08-03T11:01:59.974Z,4.18
2022-08-03T11:04:40.013Z,4.28
2022-08-03T11:07:26.930Z,4.05
2022-08-03T11:09:54.775Z,4.18
2022-08-03T11:12:30.791Z,3.45
2022-08-03T11:15:04.406Z,3.97
2022-08-03T11:17:31.894Z,4.20
2022-08-03T11:19:59.653Z,3.62
2022-08-03T11:22:28.307Z,4.40
2022-08-03T11:24:57.920Z,4.40
2022-08-03T11:27:33.888Z,4.50
2022-08-03T11:30:06.143Z,4.20
2022-08-03T11:32:46.719Z,4.28
2022-08-03T11:35:45.460Z,3.95
2022-08-03T11:38:12.174Z,4.12
2022-08-03T11:40:39.893Z,3.50
2022-08-03T11:43:35.080Z,3.53
2022-08-03T11:46:06.115Z,3.58
2022-08-03T11:48:37.336Z,4.07
2022-08-03T11:51:07.937Z,3.50
2022-08-03T11:53:41.819Z,4.12
2022-08-03T11:56:12.722Z,4.80
2022-08-03T11:58:58.058Z,4.80
2022-08-03T12:01:33.401Z,6.03
2022-08-03T12:04:06.069Z,4.97
2022-08-03T12:06:52.693Z,6.43
2022-08-03T12:09:21.229Z,5.35
2022-08-03T12:11:51.069Z,4.60
2022-08-03T12:14:50.918Z,4.75
2022-08-03T12:17:14.100Z,5.20
2022-08-03T12:19:43.740Z,4.60
2022-08-03T12:22:10.339Z,4.87
2022-08-03T12:24:43.503Z,3.58
2022-08-03T12:27:10.131Z,3.70
2022-08-03T12:29:36.761Z,4.43
2022-08-03T12:32:03.511Z,4.12
2022-08-03T12:34:47.321Z,3.60
2022-08-03T12:37:22.349Z,4.00
2022-08-03T12:40:01.722Z,3.70
2022-08-03T12:42:36.226Z,3.60
2022-08-03T12:45:25.387Z,4.20
2022-08-03T12:47:53.612Z,5.00
2022-08-03T12:50:27.510Z,3.80
2022-08-03T12:52:54.199Z,4.28
2022-08-03T12:55:21.583Z,3.20
2022-08-03T12:57:48.276Z,4.10
2022-08-03T13:00:28.800Z,3.55
2022-08-03T13:03:38.427Z,3.72
2022-08-03T13:05:50.533Z,3.15
2022-08-03T13:08:24.593Z,3.25
2022-08-03T13:10:51.288Z,3.53
2022-08-03T13:13:17.895Z,4.37
2022-08-03T13:15:48.026Z,3.78
2022-08-03T13:18:17.329Z,3.90
2022-08-03T13:20:44.347Z,3.60
2022-08-03T13:23:15.427Z,4.18
2022-08-03T13:25:55.904Z,4.90
2022-08-03T13:28:22.830Z,3.78
2022-08-03T13:30:49.437Z,4.47
2022-08-03T13:33:16.090Z,4.60
2022-08-03T13:35:42.686Z,3.67
2022-08-03T13:38:09.331Z,3.67
2022-08-03T13:40:41.657Z,3.62
2022-08-03T13:43:09.781Z,4.05
2022-08-03T13:45:36.761Z,5.07
2022-08-03T13:48:03.437Z,3.80
2022-08-03T13:50:31.412Z,4.72
2022-08-03T13:52:58.151Z,4.95
2022-08-03T13:55:24.867Z,3.70
2022-08-03T13:58:05.417Z,4.30
2022-08-03T14:00:39.703Z,4.50
2022-08-03T14:03:13.354Z,3.62
2022-08-03T14:05:41.920Z,3.97
2022-08-03T14:08:08.631Z,3.60
2022-08-03T14:10:41.676Z,3.75
2022-08-03T14:13:08.879Z,4.00
2022-08-03T14:15:37.556Z,3.80
2022-08-03T14:18:06.528Z,3.45
2022-08-03T14:20:37.813Z,3.70
2022-08-03T14:23:06.944Z,4.10
2022-08-03T14:25:43.220Z,3.97
2022-08-03T14:28:18.281Z,4.30
2022-08-03T14:30:44.922Z,4.72
2022-08-03T14:33:11.542Z,4.93
2022-08-03T14:35:38.184Z,5.22
2022-08-03T14:38:04.944Z,3.90
2022-08-03T14:42:59.259Z,4.12
2022-08-03T14:45:25.897Z,4.78
2022-08-03T14:50:24.994Z,4.93
2022-08-03T14:50:43.277Z,4.30
2022-08-03T14:53:12.254Z,4.22
2022-08-03T14:55:49.592Z,4.15
2022-08-03T14:58:21.132Z,3.30
2022-08-03T15:00:51.019Z,4.18
2022-08-03T15:03:21.431Z,3.70
2022-08-03T15:05:48.540Z,4.53
2022-08-03T15:08:15.867Z,5.18
2022-08-03T15:10:44.342Z,3.97
2022-08-03T15:13:12.715Z,3.95
2022-08-03T15:15:39.713Z,3.60
2022-08-03T15:18:06.392Z,3.35
2022-08-03T15:20:43.972Z,10.85
2022-08-03T15:23:11.719Z,4.45
2022-08-03T15:26:31.813Z,3.70
2022-08-03T15:28:25.026Z,4.05
2022-08-03T15:30:54.789Z,3.95
2022-08-03T15:33:21.430Z,4.80
2022-08-03T15:35:48.145Z,3.70
2022-08-03T15:38:14.795Z,4.80
2022-08-03T15:40:42.611Z,3.62
2022-08-03T15:43:09.245Z,3.67
2022-08-03T15:45:36.767Z,3.87
2022-08-03T15:48:05.436Z,4.78
2022-08-03T15:50:47.542Z,3.70
2022-08-03T15:53:14.128Z,3.92
2022-08-03T15:55:41.199Z,3.60
2022-08-03T15:59:12.708Z,3.80
2022-08-03T16:00:54.483Z,3.78
2022-08-03T16:03:23.643Z,4.03
2022-08-03T16:05:50.228Z,3.00
2022-08-03T16:08:16.848Z,3.37
2022-08-03T16:10:44.802Z,3.25
2022-08-03T16:13:11.732Z,3.45
2022-08-03T16:18:07.137Z,3.97
2022-08-03T16:20:35.410Z,4.07
2022-08-03T16:23:10.480Z,3.80
2022-08-03T16:25:38.060Z,3.40
2022-08-03T16:30:34.952Z,3.47
2022-08-03T16:33:01.564Z,3.87
2022-08-03T16:35:28.218Z,3.40
2022-08-03T16:37:56.406Z,3.62
2022-08-03T16:40:24.895Z,4.00
2022-08-03T16:42:51.493Z,3.62
2022-08-03T16:45:18.284Z,3.62
2022-08-03T16:47:45.123Z,4.30
2022-08-03T16:50:18.958Z,3.25
2022-08-03T16:52:47.289Z,3.58
2022-08-03T16:55:43.533Z,3.45
2022-08-03T16:58:03.414Z,3.70
2022-08-03T17:00:34.283Z,3.40
2022-08-03T17:03:18.815Z,4.00
2022-08-03T17:05:49.502Z,3.72
2022-08-03T17:08:35.277Z,3.40
2022-08-03T17:11:07.501Z,3.80
2022-08-03T17:13:40.064Z,3.17
2022-08-03T17:16:09.960Z,4.07
2022-08-03T17:18:38.514Z,3.85
2022-08-03T17:21:14.643Z,3.70
2022-08-03T17:24:12.429Z,3.78
2022-08-03T17:26:43.591Z,3.50
2022-08-03T17:29:13.034Z,3.12
2022-08-03T17:31:49.045Z,3.42
2022-08-03T17:34:16.996Z,3.60
2022-08-03T17:39:57.120Z,3.83
2022-08-03T17:42:39.068Z,4.00
2022-08-03T17:45:06.712Z,3.67
2022-08-03T17:47:42.671Z,3.50
2022-08-03T17:50:24.047Z,3.53
2022-08-03T17:52:52.190Z,3.58
2022-08-03T17:55:56.582Z,3.60
2022-08-03T17:58:14.065Z,3.60
2022-08-03T18:01:01.113Z,3.62
2022-08-03T18:03:56.952Z,3.90
2022-08-03T18:06:28.997Z,3.75
2022-08-03T18:08:56.514Z,3.80
2022-08-03T18:11:24.021Z,3.67
2022-08-03T18:14:23.807Z,3.72
2022-08-03T18:16:57.927Z,3.80
2022-08-03T18:20:02.049Z,4.50
2022-08-03T18:22:14.503Z,3.80
2022-08-03T18:24:42.190Z,4.25
2022-08-03T18:27:11.112Z,3.95
2022-08-03T18:29:38.053Z,3.30
2022-08-03T18:32:06.860Z,3.53
2022-08-03T18:34:37.011Z,3.90
2022-08-03T18:37:25.137Z,4.00
2022-08-03T18:39:57.935Z,3.75
2022-08-03T18:42:26.470Z,3.92
2022-08-03T18:44:56.409Z,3.50
2022-08-03T18:47:50.969Z,3.85
2022-08-03T18:50:31.133Z,4.05
2022-08-03T18:53:16.503Z,4.55
2022-08-03T18:56:20.587Z,5.35
2022-08-03T18:59:02.684Z,3.70
2022-08-03T19:01:59.739Z,3.97
2022-08-03T19:04:48.395Z,4.60
2022-08-03T19:07:23.268Z,4.95
2022-08-03T19:09:54.503Z,5.25
2022-08-03T19:12:40.518Z,5.18
2022-08-03T19:15:10.630Z,7.15
2022-08-03T19:17:41.697Z,5.50
2022-08-03T19:20:10.391Z,5.82
2022-08-03T19:22:37.860Z,6.60
2022-08-03T19:25:05.250Z,7.30
2022-08-03T19:27:33.455Z,6.85
2022-08-03T19:30:04.095Z,6.20
2022-08-03T19:32:32.874Z,5.87
2022-08-03T19:37:39.993Z,8.02
2022-08-03T19:40:10.274Z,5.28
2022-08-03T19:42:37.638Z,6.15
2022-08-03T19:45:11.357Z,5.25
2022-08-03T19:48:09.703Z,4.85
2022-08-03T19:50:37.148Z,5.07
2022-08-03T19:53:12.321Z,5.12
2022-08-03T19:55:40.534Z,4.75
2022-08-03T19:58:24.338Z,4.12
2022-08-03T20:00:56.625Z,5.45
2022-08-03T20:03:23.385Z,6.07
2022-08-03T20:05:53.966Z,6.30
2022-08-03T20:08:21.239Z,5.80
2022-08-03T20:10:48.675Z,5.10
2022-08-03T20:13:19.255Z,5.45
2022-08-03T20:15:46.185Z,7.95
2022-08-03T20:18:16.673Z,5.75
2022-08-03T20:20:44.055Z,4.87
2022-08-03T20:23:19.188Z,6.30
2022-08-03T20:25:57.589Z,5.50
2022-08-03T20:28:50.030Z,5.85
2022-08-03T20:31:25.153Z,7.32
2022-08-03T20:33:59.873Z,5.60
2022-08-03T20:39:11.848Z,5.75
2022-08-03T20:41:38.567Z,6.18
2022-08-03T20:44:07.592Z,5.80
2022-08-03T20:46:50.055Z,5.30
2022-08-03T20:49:21.318Z,6.43
2022-08-03T20:51:53.164Z,5.65
2022-08-03T20:54:31.030Z,5.10
2022-08-03T20:57:04.450Z,4.87
2022-08-03T20:59:50.771Z,5.25
2022-08-03T21:02:30.557Z,4.35
2022-08-03T21:04:59.320Z,5.00
2022-08-03T21:07:45.550Z,4.10
2022-08-03T21:10:17.678Z,4.07
2022-08-03T21:12:54.435Z,4.57
2022-08-03T21:16:11.166Z,4.78
2022-08-03T21:18:17.732Z,4.57
2022-08-03T21:20:44.963Z,4.57
2022-08-03T21:23:12.834Z,4.87
2022-08-03T21:25:59.439Z,4.82
2022-08-03T21:28:27.431Z,4.43
2022-08-03T21:30:54.651Z,4.20
2022-08-03T21:33:23.256Z,3.97
2022-08-03T21:35:49.854Z,4.10
2022-08-03T21:38:19.383Z,4.20
2022-08-03T21:40:46.900Z,4.07
2022-08-03T21:43:16.039Z,5.15
2022-08-03T21:45:50.181Z,4.30
2022-08-03T21:48:16.826Z,3.90
2022-08-03T21:50:43.579Z,4.00
2022-08-03T21:53:10.568Z,3.85
2022-08-03T21:55:38.879Z,4.68
2022-08-03T21:58:06.039Z,5.72
2022-08-03T22:00:32.752Z,4.57
2022-08-03T22:03:00.231Z,3.87
2022-08-03T22:05:43.715Z,3.80
2022-08-03T22:08:14.042Z,3.87
2022-08-03T22:10:43.219Z,3.72
2022-08-03T22:13:09.882Z,3.80
2022-08-03T22:15:36.479Z,5.20
2022-08-03T22:18:03.675Z,4.15
2022-08-03T22:22:59.755Z,3.58
2022-08-03T22:25:29.295Z,3.50
2022-08-03T22:27:56.491Z,3.28
2022-08-03T22:30:23.085Z,3.53
2022-08-03T22:32:50.198Z,3.05
2022-08-03T22:35:16.775Z,4.03
2022-08-03T22:37:43.375Z,4.25
2022-08-03T22:40:12.013Z,3.25
2022-08-03T22:42:39.799Z,4.10
2022-08-03T22:45:06.984Z,3.60
2022-08-03T22:47:37.806Z,3.60
2022-08-03T22:50:32.842Z,3.60
2022-08-03T22:52:55.954Z,3.15
2022-08-03T22:55:24.924Z,3.53
2022-08-03T22:57:55.700Z,3.85
2022-08-03T23:00:23.057Z,4.00
2022-08-03T23:02:49.771Z,4.30
2022-08-03T23:06:01.644Z,4.00
2022-08-03T23:08:14.734Z,4.00
2022-08-03T23:10:46.678Z,3.87
2022-08-03T23:13:14.741Z,3.75
2022-08-03T23:15:41.350Z,4.30
2022-08-03T23:18:07.972Z,4.43
2022-08-03T23:20:34.809Z,4.25
2022-08-03T23:23:05.016Z,4.05
2022-08-03T23:25:31.633Z,4.37
2022-08-03T23:28:05.254Z,3.80
2022-08-03T23:30:33.759Z,4.03
2022-08-03T23:33:00.374Z,4.15
2022-08-03T23:36:27.585Z,4.00
2022-08-03T23:38:36.720Z,3.75
2022-08-03T23:41:04.408Z,3.65
2022-08-03T23:43:50.931Z,3.65
2022-08-03T23:46:21.440Z,3.85
2022-08-03T23:48:48.250Z,3.35
2022-08-03T23:51:40.103Z,3.67
2022-08-03T23:54:15.432Z,3.80
2022-08-03T23:57:26.272Z,3.42
